createdAt,value
2017-03-23T06:53:39.657Z,63.9
2017-03-23T06:54:41.738Z,65
2017-03-23T06:55:43.677Z,64.9
2017-03-23T06:56:45.489Z,64.9
2017-03-23T06:57:47.629Z,64.8
2017-03-23T06:58:49.433Z,64.8
2017-03-23T06:59:51.354Z,64.7
2017-03-23T07:00:53.177Z,64.8
2017-03-23T07:01:54.977Z,64.8
2017-03-23T07:02:56.931Z,64.8
2017-03-23T07:03:58.736Z,64.8
2017-03-23T07:05:00.580Z,64.8
2017-03-23T07:06:02.722Z,64.8
2017-03-23T07:07:04.520Z,64.8
2017-03-23T07:08:06.325Z,64.7
2017-03-23T07:09:08.129Z,64.8
2017-03-23T07:10:10.019Z,64.8
2017-03-23T07:11:11.834Z,64.9
2017-03-23T07:12:14.057Z,64.9
2017-03-23T07:13:15.865Z,64.8
2017-03-23T07:14:17.659Z,64.7
2017-03-23T07:15:19.469Z,64.8
2017-03-23T07:16:21.312Z,64.9
2017-03-23T07:17:23.114Z,64.9
2017-03-23T07:18:25.057Z,64.9
2017-03-23T07:19:26.856Z,64.8
2017-03-23T07:20:28.662Z,64.9
2017-03-23T07:21:30.497Z,64.8
2017-03-23T07:22:32.316Z,64.8
2017-03-23T07:23:34.116Z,64.8
2017-03-23T07:24:35.927Z,64.8
2017-03-23T07:25:37.741Z,64.8
2017-03-23T07:26:39.541Z,64.7
2017-03-23T07:27:41.356Z,64.8
2017-03-23T07:28:43.254Z,64.7
2017-03-23T07:29:45.070Z,64.7
2017-03-23T07:30:46.872Z,64.6
2017-03-23T07:31:48.829Z,64.5
2017-03-23T07:32:50.637Z,64.4
2017-03-23T07:33:52.486Z,64.4
2017-03-23T07:34:54.298Z,64.4
2017-03-23T07:35:56.214Z,64.4
2017-03-23T07:36:58.371Z,64.5
2017-03-23T07:38:00.174Z,64.5
2017-03-23T07:39:01.973Z,64.7
2017-03-23T07:40:03.774Z,64.6
2017-03-23T07:41:05.917Z,64.6
2017-03-23T07:42:07.712Z,64.6
2017-03-23T07:43:09.523Z,64.6
2017-03-23T07:44:11.334Z,64.6
2017-03-23T07:45:13.274Z,64.6
2017-03-23T07:46:15.091Z,63.6
2017-03-23T07:47:16.895Z,63.6
2017-03-23T07:48:18.699Z,63.5
2017-03-23T07:49:20.631Z,63.5
2017-03-23T07:50:22.490Z,63.5
2017-03-23T07:51:24.292Z,63.4
2017-03-23T07:52:26.447Z,63.4
2017-03-23T07:53:28.257Z,63.5
2017-03-23T07:54:30.069Z,63.5
2017-03-23T07:55:31.870Z,63.5
2017-03-23T07:56:33.697Z,63.5
2017-03-23T07:57:35.538Z,63.5
2017-03-23T07:58:37.357Z,63.5
2017-03-23T07:59:39.154Z,63.5
2017-03-23T08:00:41.188Z,63.5
2017-03-23T08:01:42.995Z,64.5
2017-03-23T08:02:44.790Z,64.5
2017-03-23T08:03:46.594Z,64.6
2017-03-23T08:04:48.398Z,64.6
2017-03-23T08:05:50.211Z,64.7
2017-03-23T08:06:52.021Z,64.6
2017-03-23T08:07:54.162Z,64.7
2017-03-23T08:08:55.960Z,64.7
2017-03-23T08:09:57.778Z,64.7
2017-03-23T08:10:59.931Z,64.7
2017-03-23T08:12:02.068Z,64.7
2017-03-23T08:13:04.210Z,64.7
2017-03-23T08:14:06.034Z,64.7
2017-03-23T08:15:08.081Z,64.7
2017-03-23T08:16:09.889Z,64.7
2017-03-23T08:17:12.025Z,64.7
2017-03-23T08:18:13.839Z,64.7
2017-03-23T08:19:15.637Z,64.7
2017-03-23T08:20:17.451Z,64.7
2017-03-23T08:21:19.300Z,63.7
2017-03-23T08:22:21.103Z,64.7
2017-03-23T08:23:22.930Z,64.7
2017-03-23T08:24:24.739Z,63.8
2017-03-23T08:25:26.553Z,63.9
2017-03-23T08:26:28.580Z,64.8
2017-03-23T08:27:30.393Z,63.8
2017-03-23T08:28:32.459Z,63.9
2017-03-23T08:29:34.626Z,63.9
2017-03-23T08:30:36.426Z,63.9
2017-03-23T08:31:38.235Z,63.9
2017-03-23T08:32:40.034Z,63.7
2017-03-23T08:33:41.839Z,63.8
2017-03-23T08:34:43.681Z,63.8
2017-03-23T08:35:45.491Z,63.8
2017-03-23T08:36:47.289Z,63.8
2017-03-23T08:37:49.102Z,63.7
2017-03-23T08:38:50.901Z,63.7
2017-03-23T08:39:53.027Z,63.7
2017-03-23T08:40:54.833Z,63.7
2017-03-23T08:41:56.973Z,63.7
2017-03-23T08:42:58.774Z,63.7
2017-03-23T08:44:00.577Z,63.8
2017-03-23T08:45:02.713Z,63.8
2017-03-23T08:46:04.522Z,63.9
2017-03-23T08:47:06.358Z,63.9
2017-03-23T08:48:08.164Z,63.9
2017-03-23T08:49:09.980Z,63.9
2017-03-23T08:50:11.929Z,63.9
2017-03-23T08:51:13.741Z,63.9
2017-03-23T08:52:15.764Z,63.9
2017-03-23T08:53:17.581Z,64.1
2017-03-23T08:54:19.379Z,64.1
2017-03-23T08:55:21.195Z,64
2017-03-23T08:56:23.004Z,63.9
2017-03-23T08:57:24.808Z,63.9
2017-03-23T08:58:26.602Z,63.9
2017-03-23T08:59:28.405Z,63.9
2017-03-23T09:00:30.207Z,63.9
2017-03-23T09:01:32.288Z,64.1
2017-03-23T09:02:34.082Z,63.9
2017-03-23T09:03:35.893Z,63.9
2017-03-23T09:04:37.729Z,64
2017-03-23T09:05:39.884Z,64
2017-03-23T09:06:41.693Z,64.1
2017-03-23T09:07:43.495Z,64
2017-03-23T09:08:45.303Z,64.1
2017-03-23T09:09:47.103Z,64.1
2017-03-23T09:10:48.911Z,64
2017-03-23T09:11:50.712Z,63.8
2017-03-23T09:12:52.514Z,63.7
2017-03-23T09:13:54.320Z,63.7
2017-03-23T09:14:56.458Z,63.9
2017-03-23T09:15:58.254Z,64
2017-03-23T09:17:00.060Z,64
2017-03-23T09:18:01.890Z,63.9
2017-03-23T09:19:03.698Z,63.9
2017-03-23T09:20:05.501Z,64
2017-03-23T09:21:07.308Z,63.9
2017-03-23T09:22:09.108Z,63.9
2017-03-23T09:23:10.910Z,63.8
2017-03-23T09:24:12.715Z,63.9
2017-03-23T09:25:14.513Z,63.8
2017-03-23T09:26:16.328Z,63.7
2017-03-23T09:27:18.131Z,63.7
2017-03-23T09:28:19.938Z,63.7
2017-03-23T09:29:21.746Z,63.7
2017-03-23T09:30:23.889Z,63.6
2017-03-23T09:31:25.720Z,63.7
2017-03-23T09:32:27.807Z,63.7
2017-03-23T09:33:29.952Z,63.8
2017-03-23T09:34:31.785Z,63.8
2017-03-23T09:35:33.596Z,63.8
2017-03-23T09:36:35.392Z,63.8
2017-03-23T09:37:37.514Z,63.9
2017-03-23T09:38:39.347Z,63.9
2017-03-23T09:39:41.147Z,63.9
2017-03-23T09:40:42.955Z,63.7
2017-03-23T09:41:44.763Z,63.8
2017-03-23T09:42:46.920Z,63.7
2017-03-23T09:43:48.933Z,63.9
2017-03-23T09:44:50.740Z,63.8
2017-03-23T09:45:52.545Z,64
2017-03-23T09:46:54.339Z,64.1
2017-03-23T09:47:56.148Z,64.1
2017-03-23T09:48:58.157Z,64.1
2017-03-23T09:49:59.972Z,64.1
2017-03-23T09:51:02.166Z,64
2017-03-23T09:52:03.975Z,64
2017-03-23T09:53:05.783Z,64
2017-03-23T09:54:07.593Z,64
2017-03-23T09:55:09.403Z,64.1
2017-03-23T09:56:11.200Z,64
2017-03-23T09:57:13.000Z,64
2017-03-23T09:58:15.172Z,64
2017-03-23T09:59:16.973Z,64.1
2017-03-23T10:00:18.771Z,64.1
2017-03-23T10:01:20.668Z,64.1
2017-03-23T10:02:22.471Z,64.1
2017-03-23T10:03:24.523Z,64.1
2017-03-23T10:04:26.333Z,64.1
2017-03-23T10:05:28.134Z,64.1
2017-03-23T10:06:29.938Z,64.1
2017-03-23T10:07:31.745Z,64.1
2017-03-23T10:08:33.551Z,64.1
2017-03-23T10:09:35.350Z,64.2
2017-03-23T10:10:37.154Z,64.2
2017-03-23T10:11:38.960Z,64.2
2017-03-23T10:12:40.757Z,64.3
2017-03-23T10:13:42.563Z,64.1
2017-03-23T10:14:44.360Z,64.2
2017-03-23T10:15:46.176Z,64.1
2017-03-23T10:16:47.973Z,64
2017-03-23T10:17:49.782Z,64.1
2017-03-23T10:18:51.574Z,64.1
2017-03-23T10:19:53.381Z,64.1
2017-03-23T10:20:55.191Z,64.3
2017-03-23T10:21:57.366Z,64.2
2017-03-23T10:22:59.167Z,64.2
2017-03-23T10:24:01.208Z,64.1
2017-03-23T10:25:03.006Z,64.1
2017-03-23T10:26:04.810Z,64.1
2017-03-23T10:27:06.612Z,64.1
2017-03-23T10:28:08.422Z,64.1
2017-03-23T10:29:10.223Z,64.1
2017-03-23T10:30:12.030Z,64.2
2017-03-23T10:31:14.176Z,64.2
2017-03-23T10:32:16.318Z,64.2
2017-03-23T10:33:18.454Z,64.2
2017-03-23T10:34:20.266Z,64.2
2017-03-23T10:35:22.264Z,64.1
2017-03-23T10:36:24.413Z,64.1
2017-03-23T10:37:26.492Z,64.1
2017-03-23T10:38:28.301Z,64.2
2017-03-23T10:39:30.108Z,64.3
2017-03-23T10:40:31.913Z,64.3
2017-03-23T10:41:33.722Z,64.3
2017-03-23T10:42:35.516Z,64.3
2017-03-23T10:43:37.320Z,64.3
2017-03-23T10:44:39.127Z,64.3
2017-03-23T10:45:40.926Z,64.4
2017-03-23T10:46:42.740Z,64.5
2017-03-23T10:47:44.858Z,64.5
2017-03-23T10:48:47.007Z,64.4
2017-03-23T10:49:48.812Z,64.6
2017-03-23T10:50:50.612Z,64.5
2017-03-23T10:51:52.416Z,64.5
2017-03-23T10:52:54.431Z,64.5
2017-03-23T10:53:56.590Z,64.4
2017-03-23T10:54:58.392Z,64.5
2017-03-23T10:56:00.193Z,64.5
2017-03-23T10:57:02.296Z,64.5
2017-03-23T10:58:04.096Z,64.4
2017-03-23T10:59:06.158Z,64.4
2017-03-23T11:00:07.959Z,64.4
2017-03-23T11:01:09.765Z,64.3
2017-03-23T11:02:11.565Z,64.2
2017-03-23T11:03:13.366Z,64.3
2017-03-23T11:04:15.180Z,64.4
2017-03-23T11:05:17.323Z,64.3
2017-03-23T11:06:19.161Z,64.4
2017-03-23T11:07:20.966Z,64.3
2017-03-23T11:08:22.787Z,64.4
2017-03-23T11:09:24.592Z,64.5
2017-03-23T11:10:26.631Z,64.4
2017-03-23T11:11:28.434Z,64.5
2017-03-23T11:12:30.575Z,64.3
2017-03-23T11:13:32.381Z,64.4
2017-03-23T11:14:34.536Z,64.4
2017-03-23T11:15:36.363Z,64.5
2017-03-23T11:16:38.176Z,64.5
2017-03-23T11:17:39.973Z,64.4
2017-03-23T11:18:41.830Z,64.5
2017-03-23T11:19:43.640Z,64.4
2017-03-23T11:20:45.671Z,64.3
2017-03-23T11:21:48.002Z,64.3
2017-03-23T11:22:49.801Z,64.4
2017-03-23T11:23:51.603Z,64.3
2017-03-23T11:24:53.415Z,64.1
2017-03-23T11:25:55.214Z,64.1
2017-03-23T11:26:57.031Z,64
2017-03-23T11:27:58.827Z,64
2017-03-23T11:29:00.635Z,64
2017-03-23T11:30:02.443Z,64
2017-03-23T11:31:04.243Z,64.1
2017-03-23T11:32:06.055Z,64.2
2017-03-23T11:33:08.124Z,64.2
2017-03-23T11:34:09.919Z,64.3
2017-03-23T11:35:12.035Z,64.3
2017-03-23T11:36:14.177Z,64.2
2017-03-23T11:37:16.316Z,64.2
2017-03-23T11:38:18.479Z,64.1
2017-03-23T11:39:20.289Z,64.2
2017-03-23T11:40:22.090Z,64.2
2017-03-23T11:41:23.937Z,64.2
2017-03-23T11:42:25.734Z,64.3
2017-03-23T11:43:27.539Z,64.4
2017-03-23T11:44:29.360Z,64.3
2017-03-23T11:45:31.456Z,64.3
2017-03-23T11:46:33.793Z,64.2
2017-03-23T11:47:35.603Z,64.3
2017-03-23T11:48:38.094Z,64.3
2017-03-23T11:49:40.550Z,64.3
2017-03-23T11:50:42.353Z,64.4
2017-03-23T11:51:44.165Z,64.4
2017-03-23T11:52:45.970Z,64.4
2017-03-23T11:53:47.776Z,64.2
2017-03-23T11:54:49.582Z,64.2
2017-03-23T11:55:51.388Z,64.1
2017-03-23T11:56:53.186Z,64.3
2017-03-23T11:57:55.204Z,64.2
2017-03-23T11:58:57.005Z,64.1
2017-03-23T11:59:59.035Z,64.1
2017-03-23T12:01:00.838Z,64
2017-03-23T12:02:02.640Z,64.1
2017-03-23T12:03:04.447Z,64.2
2017-03-23T12:04:06.251Z,64.1
2017-03-23T12:05:08.060Z,64.1
2017-03-23T12:06:09.858Z,64.1
2017-03-23T12:07:11.657Z,64.1
2017-03-23T12:08:13.474Z,64.1
2017-03-23T12:09:15.272Z,64
2017-03-23T12:10:17.426Z,64
2017-03-23T12:11:19.529Z,64
2017-03-23T12:12:21.351Z,63.9
2017-03-23T12:13:23.406Z,63.9
2017-03-23T12:14:25.212Z,64
2017-03-23T12:15:27.015Z,64
2017-03-23T12:16:28.819Z,64
2017-03-23T12:17:30.629Z,64
2017-03-23T12:18:32.457Z,64.1
2017-03-23T12:19:34.611Z,64.1
2017-03-23T12:20:36.414Z,64.1
2017-03-23T12:21:38.221Z,64
2017-03-23T12:22:40.028Z,64
2017-03-23T12:23:41.833Z,64
2017-03-23T12:24:43.697Z,63.9
2017-03-23T12:25:45.744Z,64
2017-03-23T12:26:47.548Z,64
2017-03-23T12:27:49.688Z,64.1
2017-03-23T12:28:51.497Z,64.2
2017-03-23T12:29:53.300Z,64.1
2017-03-23T12:30:55.108Z,64.1
2017-03-23T12:31:56.915Z,64
2017-03-23T12:32:58.720Z,64.1
2017-03-23T12:34:00.528Z,64.1
2017-03-23T12:35:02.672Z,64.1
2017-03-23T12:36:04.483Z,63.9
2017-03-23T12:37:06.291Z,63.9
2017-03-23T12:38:08.090Z,63.9
2017-03-23T12:39:09.900Z,63.9
2017-03-23T12:40:11.704Z,64
2017-03-23T12:41:13.509Z,64
2017-03-23T12:42:15.319Z,64.1
2017-03-23T12:43:17.119Z,64
2017-03-23T12:44:18.931Z,64.1
2017-03-23T12:45:20.727Z,64
2017-03-23T12:46:22.539Z,64
2017-03-23T12:47:24.348Z,64
2017-03-23T12:48:26.157Z,64
2017-03-23T12:49:27.958Z,64
2017-03-23T12:50:29.768Z,64
2017-03-23T12:51:31.585Z,64
2017-03-23T12:52:33.726Z,63.9
2017-03-23T12:53:35.534Z,64
2017-03-23T12:54:37.342Z,63.9
2017-03-23T12:55:39.150Z,63.9
2017-03-23T12:56:40.961Z,63.8
2017-03-23T12:57:42.760Z,63.7
2017-03-23T12:58:44.575Z,63.7
2017-03-23T12:59:46.382Z,63.7
2017-03-23T13:00:48.217Z,63.7
2017-03-23T13:01:50.364Z,63.8
2017-03-23T13:02:52.181Z,63.7
2017-03-23T13:03:54.017Z,63.6
2017-03-23T13:04:55.949Z,63.5
2017-03-23T13:05:57.842Z,63.5
2017-03-23T13:06:59.676Z,63.4
2017-03-23T13:08:01.496Z,63.5
2017-03-23T13:09:03.509Z,63.4
2017-03-23T13:10:05.342Z,63.4
2017-03-23T13:11:07.289Z,63.2
2017-03-23T13:12:09.091Z,63.2
2017-03-23T13:13:10.906Z,63.2
2017-03-23T13:14:12.824Z,63.1
2017-03-23T13:15:15.067Z,63.1
2017-03-23T13:16:16.899Z,63.1
2017-03-23T13:17:18.921Z,63.1
2017-03-23T13:18:20.735Z,63.1
2017-03-23T13:19:22.552Z,63
2017-03-23T13:20:24.369Z,62.9
2017-03-23T13:21:26.176Z,62.9
2017-03-23T13:22:27.987Z,62.8
2017-03-23T13:23:29.903Z,62.7
2017-03-23T13:24:31.709Z,62.7
2017-03-23T13:25:33.574Z,62.6
2017-03-23T13:26:35.380Z,62.4
2017-03-23T13:27:37.409Z,62.5
2017-03-23T13:28:39.362Z,62.6
2017-03-23T13:29:41.523Z,62.8
2017-03-23T13:30:43.512Z,62.8
2017-03-23T13:31:45.425Z,62.9
2017-03-23T13:32:47.850Z,62.9
2017-03-23T13:33:49.666Z,63
2017-03-23T13:34:51.705Z,63
2017-03-23T13:35:53.513Z,63.1
2017-03-23T13:36:55.323Z,63.2
2017-03-23T13:37:57.143Z,63.2
2017-03-23T13:38:59.515Z,63.1
2017-03-23T13:40:01.322Z,63
2017-03-23T13:41:03.463Z,62.9
2017-03-23T13:42:05.321Z,62.9
2017-03-23T13:43:07.832Z,62.9
2017-03-23T13:44:09.635Z,63.1
2017-03-23T13:45:11.439Z,63.1
2017-03-23T13:46:13.259Z,63.2
2017-03-23T13:47:15.315Z,63.3
2017-03-23T13:48:17.429Z,63.3
2017-03-23T13:49:19.236Z,63.4
2017-03-23T13:50:21.041Z,63.4
2017-03-23T13:51:23.182Z,63.4
2017-03-23T13:52:24.988Z,63.4
2017-03-23T13:53:26.787Z,63.4
2017-03-23T13:54:28.651Z,63.4
2017-03-23T13:55:30.459Z,63.4
2017-03-23T13:56:32.275Z,63.5
2017-03-23T13:57:34.778Z,63.5
2017-03-23T13:58:36.577Z,63.5
2017-03-23T13:59:38.388Z,63.5
2017-03-23T14:00:40.193Z,63.5
2017-03-23T14:01:42.001Z,63.5
2017-03-23T14:02:43.804Z,63.5
2017-03-23T14:03:45.618Z,63.5
2017-03-23T14:04:48.046Z,63.6
2017-03-23T14:05:49.852Z,63.6
2017-03-23T14:06:51.658Z,63.6
2017-03-23T14:07:53.465Z,63.5
2017-03-23T14:08:55.275Z,63.6
2017-03-23T14:09:57.085Z,63.7
2017-03-23T14:10:59.256Z,63.7
2017-03-23T14:12:01.075Z,63.7
2017-03-23T14:13:02.887Z,63.6
2017-03-23T14:14:04.693Z,63.6
2017-03-23T14:15:06.499Z,63.7
2017-03-23T14:16:08.448Z,63.6
2017-03-23T14:17:10.251Z,63.6
2017-03-23T14:18:12.066Z,63.6
2017-03-23T14:19:13.880Z,63.5
2017-03-23T14:20:15.694Z,63.5
2017-03-23T14:21:17.499Z,63.5
2017-03-23T14:22:19.572Z,63.5
2017-03-23T14:23:21.383Z,63.5
2017-03-23T14:24:23.183Z,63.4
2017-03-23T14:25:24.988Z,63.4
2017-03-23T14:26:26.793Z,63.5
2017-03-23T14:27:28.593Z,63.5
2017-03-23T14:28:30.409Z,63.5
2017-03-23T14:29:32.210Z,63.6
2017-03-23T14:30:34.033Z,63.6
2017-03-23T14:31:35.840Z,63.6
2017-03-23T14:32:37.656Z,63.7
2017-03-23T14:33:39.749Z,63.8
2017-03-23T14:34:41.565Z,63.8
2017-03-23T14:35:43.374Z,63.8
2017-03-23T14:36:45.514Z,63.7
2017-03-23T14:37:47.321Z,63.8
2017-03-23T14:38:49.128Z,63.7
2017-03-23T14:39:50.929Z,63.8
2017-03-23T14:40:52.746Z,63.9
2017-03-23T14:41:54.889Z,63.8
2017-03-23T14:42:56.700Z,63.8
2017-03-23T14:43:58.699Z,63.8
2017-03-23T14:45:00.510Z,63.8
2017-03-23T14:46:02.330Z,63.8
2017-03-23T14:47:04.164Z,63.7
2017-03-23T14:48:05.969Z,63.8
2017-03-23T14:49:07.776Z,63.8
2017-03-23T14:50:09.908Z,63.7
2017-03-23T14:51:11.716Z,63.8
2017-03-23T14:52:13.522Z,63.8
2017-03-23T14:53:15.324Z,63.9
2017-03-23T14:54:17.133Z,63.9
2017-03-23T14:55:18.933Z,63.8
2017-03-23T14:56:20.744Z,63.8
2017-03-23T14:57:22.550Z,63.7
2017-03-23T14:58:24.356Z,63.8
2017-03-23T14:59:26.165Z,63.8
2017-03-23T15:00:27.970Z,63.8
2017-03-23T15:01:29.776Z,63.8
2017-03-23T15:02:31.916Z,63.6
2017-03-23T15:03:33.731Z,63.6
2017-03-23T15:04:35.537Z,63.7
2017-03-23T15:05:37.690Z,63.7
2017-03-23T15:06:39.510Z,63.6
2017-03-23T15:07:41.316Z,63.6
2017-03-23T15:08:43.125Z,63.6
2017-03-23T15:09:44.935Z,63.6
2017-03-23T15:10:46.749Z,63.8
2017-03-23T15:11:48.557Z,63.6
2017-03-23T15:12:50.375Z,63.6
2017-03-23T15:13:52.178Z,63.6
2017-03-23T15:14:54.322Z,63.6
2017-03-23T15:15:56.221Z,63.6
2017-03-23T15:16:58.172Z,63.6
2017-03-23T15:17:59.967Z,63.7
2017-03-23T15:19:01.786Z,63.6
2017-03-23T15:20:03.589Z,63.6
2017-03-23T15:21:05.395Z,63.7
2017-03-23T15:22:07.204Z,63.8
2017-03-23T15:23:09.013Z,63.8
2017-03-23T15:24:10.853Z,63.8
2017-03-23T15:25:12.659Z,63.8
2017-03-23T15:26:14.458Z,63.8
2017-03-23T15:27:16.270Z,63.7
2017-03-23T15:28:18.090Z,63.7
2017-03-23T15:29:19.908Z,63.7
2017-03-23T15:30:21.723Z,63.8
2017-03-23T15:31:23.543Z,63.8
2017-03-23T15:32:25.383Z,64
2017-03-23T15:33:27.192Z,63.8
2017-03-23T15:34:28.998Z,64
2017-03-23T15:35:30.806Z,63.9
2017-03-23T15:36:32.615Z,63.9
2017-03-23T15:37:34.433Z,64
2017-03-23T15:38:36.229Z,64
2017-03-23T15:39:38.037Z,64
2017-03-23T15:40:39.853Z,63.9
2017-03-23T15:41:41.666Z,63.9
2017-03-23T15:42:43.465Z,63.9
2017-03-23T15:43:45.270Z,63.9
2017-03-23T15:44:47.086Z,63.9
2017-03-23T15:45:48.896Z,64
2017-03-23T15:46:50.697Z,64
2017-03-23T15:47:52.506Z,64.1
2017-03-23T15:48:54.321Z,64.1
2017-03-23T15:49:56.129Z,64.1
2017-03-23T15:50:57.938Z,64.1
2017-03-23T15:51:59.742Z,64.1
2017-03-23T15:53:01.895Z,64.1
2017-03-23T15:54:03.712Z,64.2
2017-03-23T15:55:05.508Z,64.1
2017-03-23T15:56:07.317Z,64.2
2017-03-23T15:57:09.457Z,64.2
2017-03-23T15:58:11.270Z,64.2
2017-03-23T15:59:13.077Z,64.1
2017-03-23T16:00:14.897Z,64.1
2017-03-23T16:01:16.707Z,64.1
2017-03-23T16:02:18.508Z,64.1
2017-03-23T16:03:20.360Z,64.1
2017-03-23T16:04:22.499Z,64.1
2017-03-23T16:05:24.320Z,64.1
2017-03-23T16:06:26.125Z,64.1
2017-03-23T16:07:27.937Z,64.3
2017-03-23T16:08:29.740Z,64.2
2017-03-23T16:09:31.569Z,64.1
2017-03-23T16:10:33.712Z,64.2
2017-03-23T16:11:35.517Z,64.1
2017-03-23T16:12:37.334Z,64.1
2017-03-23T16:13:39.134Z,64.1
2017-03-23T16:14:40.945Z,64.1
2017-03-23T16:15:42.755Z,64.1
2017-03-23T16:16:44.567Z,64.1
2017-03-23T16:17:46.385Z,64.1
2017-03-23T16:18:48.191Z,64.1
2017-03-23T16:19:50.345Z,64.1
2017-03-23T16:20:52.154Z,64.1
2017-03-23T16:21:53.964Z,64.2
2017-03-23T16:22:55.774Z,64.1
2017-03-23T16:23:57.575Z,64.2
2017-03-23T16:24:59.386Z,64.3
2017-03-23T16:26:01.187Z,64.2
2017-03-23T16:27:03.000Z,64.2
2017-03-23T16:28:04.799Z,64.1
2017-03-23T16:29:06.603Z,64.3
2017-03-23T16:30:08.408Z,64.3
2017-03-23T16:31:10.567Z,64.3
2017-03-23T16:32:12.382Z,64.3
2017-03-23T16:33:14.197Z,64.3
2017-03-23T16:34:16.005Z,64.3
2017-03-23T16:35:17.805Z,64.3
2017-03-23T16:36:19.609Z,64.3
2017-03-23T16:37:21.421Z,64.1
2017-03-23T16:38:23.238Z,64.3
2017-03-23T16:39:25.404Z,64.3
2017-03-23T16:40:27.227Z,64.4
2017-03-23T16:41:29.039Z,64.4
2017-03-23T16:42:30.855Z,64.4
2017-03-23T16:43:32.661Z,64.5
2017-03-23T16:44:34.463Z,64.5
2017-03-23T16:45:36.274Z,64.5
2017-03-23T16:46:38.077Z,64.5
2017-03-23T16:47:39.892Z,64.5
2017-03-23T16:48:41.704Z,64.4
2017-03-23T16:49:43.512Z,64.4
2017-03-23T16:50:45.315Z,64.4
2017-03-23T16:51:47.125Z,64.4
2017-03-23T16:52:49.268Z,64.4
2017-03-23T16:53:51.085Z,64.4
2017-03-23T16:54:52.895Z,64.5
2017-03-23T16:55:54.704Z,64.5
2017-03-23T16:56:56.507Z,64.5
2017-03-23T16:57:58.351Z,64.5
2017-03-23T16:59:00.494Z,64.5
2017-03-23T17:00:02.351Z,64.5
2017-03-23T17:01:04.156Z,64.3
2017-03-23T17:02:05.964Z,64.5
2017-03-23T17:03:07.772Z,64.4
2017-03-23T17:04:09.925Z,64.4
2017-03-23T17:05:11.731Z,64.5
2017-03-23T17:06:13.544Z,64.5
2017-03-23T17:07:15.358Z,64.5
2017-03-23T17:08:17.166Z,64.5
2017-03-23T17:09:18.975Z,64.5
2017-03-23T17:10:21.132Z,64.6
2017-03-23T17:11:22.967Z,64.6
2017-03-23T17:12:24.771Z,64.5
2017-03-23T17:13:26.585Z,64.5
2017-03-23T17:14:28.399Z,64.6
2017-03-23T17:15:30.206Z,64.7
2017-03-23T17:16:32.012Z,64.7
2017-03-23T17:17:33.822Z,64.6
2017-03-23T17:18:35.630Z,64.7
2017-03-23T17:19:37.775Z,64.6
2017-03-23T17:20:39.576Z,64.7
2017-03-23T17:21:42.069Z,64.7
2017-03-23T17:22:44.230Z,64.7
2017-03-23T17:23:46.047Z,64.7
2017-03-23T17:24:47.855Z,64.7
2017-03-23T17:25:50.006Z,64.7
2017-03-23T17:26:51.816Z,64.6
2017-03-23T17:27:53.631Z,64.6
2017-03-23T17:28:56.132Z,64.6
2017-03-23T17:29:57.944Z,64.7
2017-03-23T17:30:59.762Z,64.7
2017-03-23T17:32:01.570Z,64.6
2017-03-23T17:33:03.382Z,64.6
2017-03-23T17:34:05.180Z,64.6
2017-03-23T17:35:06.985Z,64.7
2017-03-23T17:36:08.793Z,64.7
2017-03-23T17:37:10.598Z,64.7
2017-03-23T17:38:12.404Z,64.7
2017-03-23T17:39:14.558Z,64.6
2017-03-23T17:40:16.366Z,64.6
2017-03-23T17:41:18.176Z,64.6
2017-03-23T17:42:20.317Z,64.6
2017-03-23T17:43:22.129Z,64.6
2017-03-23T17:44:24.960Z,64.7
2017-03-23T17:45:27.134Z,64.6
2017-03-23T17:46:28.925Z,64.6
2017-03-23T17:47:30.735Z,64.5
2017-03-23T17:48:32.548Z,64.5
2017-03-23T17:49:34.691Z,64.5
2017-03-23T17:50:36.840Z,64.4
2017-03-23T17:51:38.978Z,64.7
2017-03-23T17:52:41.460Z,64.6
2017-03-23T17:53:43.281Z,64.7
2017-03-23T17:54:45.094Z,64.8
2017-03-23T17:55:46.917Z,65
2017-03-23T17:56:48.724Z,64.9
2017-03-23T17:57:50.539Z,65
2017-03-23T17:58:52.685Z,65
2017-03-23T17:59:54.498Z,64.9
2017-03-23T18:00:56.654Z,65
2017-03-23T18:01:58.457Z,64.9
2017-03-23T18:03:00.266Z,64.9
2017-03-23T18:04:02.082Z,64.9
2017-03-23T18:05:03.896Z,64.8
2017-03-23T18:06:05.695Z,64.9
2017-03-23T18:07:07.514Z,64.8
2017-03-23T18:08:09.320Z,64.8
2017-03-23T18:09:11.131Z,64.8
2017-03-23T18:10:12.940Z,64.8
2017-03-23T18:11:15.076Z,64.8
2017-03-23T18:12:16.893Z,64.8
2017-03-23T18:13:20.003Z,64.8
2017-03-23T18:14:22.491Z,64.7
2017-03-23T18:15:24.968Z,64.7
2017-03-23T18:16:27.121Z,64.9
2017-03-23T18:17:29.269Z,64.8
2017-03-23T18:18:31.763Z,64.9
2017-03-23T18:19:33.915Z,65
2017-03-23T18:20:36.065Z,64.9
2017-03-23T18:21:37.879Z,65
2017-03-23T18:22:40.043Z,65
2017-03-23T18:23:41.864Z,64.9
2017-03-23T18:24:43.664Z,65
2017-03-23T18:25:45.478Z,65
2017-03-23T18:26:47.280Z,65
2017-03-23T18:27:49.101Z,65
2017-03-23T18:28:51.247Z,65
2017-03-23T18:29:53.056Z,65
2017-03-23T18:30:55.217Z,65
2017-03-23T18:31:57.050Z,65
2017-03-23T18:32:58.894Z,65
2017-03-23T18:34:01.051Z,65
2017-03-23T18:35:03.188Z,64.9
2017-03-23T18:36:05.001Z,65
2017-03-23T18:37:06.801Z,65.1
2017-03-23T18:38:08.598Z,65.1
2017-03-23T18:39:10.421Z,65.1
2017-03-23T18:40:12.226Z,65
2017-03-23T18:41:14.041Z,65
2017-03-23T18:42:15.850Z,65
2017-03-23T18:43:17.666Z,64.9
2017-03-23T18:44:19.484Z,64.8
2017-03-23T18:45:21.285Z,64.8
2017-03-23T18:46:23.095Z,64.9
2017-03-23T18:47:24.905Z,65
2017-03-23T18:48:27.049Z,65
2017-03-23T18:49:28.863Z,65.1
2017-03-23T18:50:31.000Z,65
2017-03-23T18:51:33.142Z,65
2017-03-23T18:52:34.951Z,65
2017-03-23T18:53:37.441Z,64.9
2017-03-23T18:54:39.245Z,64.9
2017-03-23T18:55:41.385Z,64.9
2017-03-23T18:56:43.197Z,64.8
2017-03-23T18:57:45.339Z,64.8
2017-03-23T18:58:47.493Z,65
2017-03-23T18:59:49.315Z,64.8
2017-03-23T19:00:51.133Z,64.8
2017-03-23T19:01:52.968Z,64.9
2017-03-23T19:02:54.773Z,64.8
2017-03-23T19:03:56.923Z,64.7
2017-03-23T19:04:58.734Z,64.9
2017-03-23T19:06:00.544Z,64.8
2017-03-23T19:07:02.354Z,64.7
2017-03-23T19:08:04.165Z,64.8
2017-03-23T19:09:05.973Z,64.7
2017-03-23T19:10:07.793Z,64.8
2017-03-23T19:11:09.597Z,64.7
2017-03-23T19:12:11.435Z,64.7
2017-03-23T19:13:13.620Z,64.8
2017-03-23T19:14:15.817Z,64.8
2017-03-23T19:15:17.652Z,64.9
2017-03-23T19:16:19.468Z,64.8
2017-03-23T19:17:21.318Z,64.9
2017-03-23T19:18:23.466Z,64.9
2017-03-23T19:19:25.951Z,64.8
2017-03-23T19:20:28.104Z,65
2017-03-23T19:21:29.980Z,65
2017-03-23T19:22:32.124Z,64.8
2017-03-23T19:23:34.105Z,64.8
2017-03-23T19:24:35.949Z,64.9
2017-03-23T19:25:37.756Z,64.9
2017-03-23T19:26:39.736Z,65
2017-03-23T19:27:41.537Z,65
2017-03-23T19:28:43.777Z,65
2017-03-23T19:29:45.584Z,65
2017-03-23T19:30:47.386Z,65
2017-03-23T19:31:49.194Z,65
2017-03-23T19:32:50.993Z,65
2017-03-23T19:33:52.802Z,64.9
2017-03-23T19:34:54.951Z,65
2017-03-23T19:35:57.110Z,65
2017-03-23T19:36:59.259Z,64.9
2017-03-23T19:38:01.507Z,64.9
2017-03-23T19:39:03.316Z,65
2017-03-23T19:40:05.130Z,65
2017-03-23T19:41:06.951Z,65
2017-03-23T19:42:08.757Z,65
2017-03-23T19:43:10.563Z,64.9
2017-03-23T19:44:12.784Z,65.1
2017-03-23T19:45:14.930Z,65
2017-03-23T19:46:16.736Z,65
2017-03-23T19:47:18.549Z,65
2017-03-23T19:48:20.357Z,65.1
2017-03-23T19:49:22.185Z,65
2017-03-23T19:50:23.990Z,65
2017-03-23T19:51:25.792Z,65
2017-03-23T19:52:27.684Z,65
2017-03-23T19:53:29.828Z,65
2017-03-23T19:54:31.768Z,65
2017-03-23T19:55:33.580Z,65
2017-03-23T19:56:35.388Z,65
2017-03-23T19:57:37.645Z,65
2017-03-23T19:58:39.795Z,65
2017-03-23T19:59:41.954Z,64.9
2017-03-23T20:00:44.100Z,64.9
2017-03-23T20:01:45.916Z,64.9
2017-03-23T20:02:47.729Z,64.9
2017-03-23T20:03:49.545Z,64.9
2017-03-23T20:04:52.041Z,64.8
2017-03-23T20:05:53.846Z,65
2017-03-23T20:06:55.655Z,64.9
2017-03-23T20:07:57.470Z,64.9
2017-03-23T20:08:59.456Z,64.9
2017-03-23T20:10:01.614Z,64.9
2017-03-23T20:11:03.757Z,64.9
2017-03-23T20:12:05.902Z,64.9
2017-03-23T20:13:07.712Z,64.9
2017-03-23T20:14:09.870Z,64.9
2017-03-23T20:15:12.018Z,64.9
2017-03-23T20:16:14.167Z,65
2017-03-23T20:17:16.653Z,64.9
2017-03-23T20:18:18.502Z,64.9
2017-03-23T20:19:20.308Z,65
2017-03-23T20:20:22.108Z,65
2017-03-23T20:21:24.270Z,65
2017-03-23T20:22:26.077Z,64.9
2017-03-23T20:23:28.572Z,65
2017-03-23T20:24:30.716Z,65.1
2017-03-23T20:25:32.764Z,65
2017-03-23T20:26:34.919Z,65
2017-03-23T20:27:36.718Z,65
2017-03-23T20:28:38.576Z,64.9
2017-03-23T20:29:40.381Z,64.9
2017-03-23T20:30:42.188Z,65
2017-03-23T20:31:44.024Z,65
2017-03-23T20:32:46.179Z,65.1
2017-03-23T20:33:48.319Z,65.1
2017-03-23T20:34:50.134Z,65
2017-03-23T20:35:52.452Z,65
2017-03-23T20:36:54.252Z,65
2017-03-23T20:37:56.055Z,65
2017-03-23T20:38:58.214Z,65
2017-03-23T20:40:00.351Z,65
2017-03-23T20:41:02.157Z,65
2017-03-23T20:42:03.965Z,65
2017-03-23T20:43:06.110Z,65
2017-03-23T20:44:08.095Z,65
2017-03-23T20:45:10.236Z,65
2017-03-23T20:46:12.950Z,65